sensor_id;sensor_type;location;lat;lon;timestamp;temperature;humidity
24164;DHT22;12319;49.204;8.116;2022-08-01T00:01:22;24.30;46.90
24164;DHT22;12319;49.204;8.116;2022-08-01T00:03:47;24.30;47.00
24164;DHT22;12319;49.204;8.116;2022-08-01T00:06:13;24.30;47.90
24164;DHT22;12319;49.204;8.116;2022-08-01T00:08:38;24.30;47.30
24164;DHT22;12319;49.204;8.116;2022-08-01T00:11:04;25.20;48.30
24164;DHT22;12319;49.204;8.116;2022-08-01T00:13:29;24.30;47.60
24164;DHT22;12319;49.204;8.116;2022-08-01T00:15:55;24.20;47.60
24164;DHT22;12319;49.204;8.116;2022-08-01T00:18:21;24.30;47.90
24164;DHT22;12319;49.204;8.116;2022-08-01T00:20:46;24.20;48.00
24164;DHT22;12319;49.204;8.116;2022-08-01T00:23:12;24.20;48.10
24164;DHT22;12319;49.204;8.116;2022-08-01T00:25:37;24.20;48.30
24164;DHT22;12319;49.204;8.116;2022-08-01T00:28:03;24.20;48.30
24164;DHT22;12319;49.204;8.116;2022-08-01T00:30:29;24.20;48.40
24164;DHT22;12319;49.204;8.116;2022-08-01T00:32:54;24.10;48.50
24164;DHT22;12319;49.204;8.116;2022-08-01T00:35:20;24.20;48.80
24164;DHT22;12319;49.204;8.116;2022-08-01T00:37:45;24.20;48.90
24164;DHT22;12319;49.204;8.116;2022-08-01T00:40:11;24.10;48.80
24164;DHT22;12319;49.204;8.116;2022-08-01T00:42:36;24.20;48.90
24164;DHT22;12319;49.204;8.116;2022-08-01T00:45:02;24.20;49.00
24164;DHT22;12319;49.204;8.116;2022-08-01T00:47:28;24.10;49.00
24164;DHT22;12319;49.204;8.116;2022-08-01T00:49:53;24.10;49.10
24164;DHT22;12319;49.204;8.116;2022-08-01T00:52:19;24.10;49.30
24164;DHT22;12319;49.204;8.116;2022-08-01T00:54:45;24.10;49.30
24164;DHT22;12319;49.204;8.116;2022-08-01T00:57:11;24.10;49.40
24164;DHT22;12319;49.204;8.116;2022-08-01T00:59:37;24.10;49.60
24164;DHT22;12319;49.204;8.116;2022-08-01T01:02:04;24.10;49.60
24164;DHT22;12319;49.204;8.116;2022-08-01T01:04:29;24.10;49.70
24164;DHT22;12319;49.204;8.116;2022-08-01T01:07:17;24.00;49.60
24164;DHT22;12319;49.204;8.116;2022-08-01T01:12:44;23.90;50.20
24164;DHT22;12319;49.204;8.116;2022-08-01T01:15:22;23.90;50.30
24164;DHT22;12319;49.204;8.116;2022-08-01T01:17:59;23.90;50.30
24164;DHT22;12319;49.204;8.116;2022-08-01T01:20:36;23.90;50.30
24164;DHT22;12319;49.204;8.116;2022-08-01T01:23:10;23.90;50.80
24164;DHT22;12319;49.204;8.116;2022-08-01T01:30:55;23.80;50.90
24164;DHT22;12319;49.204;8.116;2022-08-01T01:33:23;23.70;50.80
24164;DHT22;12319;49.204;8.116;2022-08-01T01:35:53;23.70;51.00
24164;DHT22;12319;49.204;8.116;2022-08-01T01:38:29;23.70;51.50
24164;DHT22;12319;49.204;8.116;2022-08-01T01:40:57;23.70;51.60
24164;DHT22;12319;49.204;8.116;2022-08-01T01:43:25;23.70;51.20
24164;DHT22;12319;49.204;8.116;2022-08-01T01:45:52;23.70;51.60
24164;DHT22;12319;49.204;8.116;2022-08-01T01:48:19;23.70;51.60
24164;DHT22;12319;49.204;8.116;2022-08-01T01:50:47;23.60;51.60
24164;DHT22;12319;49.204;8.116;2022-08-01T01:53:15;23.80;51.90
24164;DHT22;12319;49.204;8.116;2022-08-01T01:55:44;23.60;51.80
24164;DHT22;12319;49.204;8.116;2022-08-01T01:58:12;23.60;51.80
24164;DHT22;12319;49.204;8.116;2022-08-01T02:00:39;23.50;51.70
24164;DHT22;12319;49.204;8.116;2022-08-01T02:03:08;23.50;51.70
24164;DHT22;12319;49.204;8.116;2022-08-01T02:05:35;23.50;51.80
24164;DHT22;12319;49.204;8.116;2022-08-01T02:08:02;23.50;52.00
24164;DHT22;12319;49.204;8.116;2022-08-01T02:10:31;23.40;52.00
24164;DHT22;12319;49.204;8.116;2022-08-01T02:12:58;23.40;52.20
24164;DHT22;12319;49.204;8.116;2022-08-01T02:15:25;23.40;52.30
24164;DHT22;12319;49.204;8.116;2022-08-01T02:17:51;23.40;52.40
24164;DHT22;12319;49.204;8.116;2022-08-01T02:20:18;23.40;52.60
24164;DHT22;12319;49.204;8.116;2022-08-01T02:22:48;23.30;52.50
24164;DHT22;12319;49.204;8.116;2022-08-01T02:25:35;23.30;52.80
24164;DHT22;12319;49.204;8.116;2022-08-01T02:28:23;23.20;52.90
24164;DHT22;12319;49.204;8.116;2022-08-01T02:30:53;23.20;53.60
24164;DHT22;12319;49.204;8.116;2022-08-01T02:33:23;23.20;52.90
24164;DHT22;12319;49.204;8.116;2022-08-01T02:35:56;23.10;53.00
24164;DHT22;12319;49.204;8.116;2022-08-01T02:38:25;23.10;53.30
24164;DHT22;12319;49.204;8.116;2022-08-01T02:40:52;23.10;53.20
24164;DHT22;12319;49.204;8.116;2022-08-01T02:43:21;23.00;53.20
24164;DHT22;12319;49.204;8.116;2022-08-01T02:45:52;23.00;53.40
24164;DHT22;12319;49.204;8.116;2022-08-01T02:48:19;23.00;53.60
24164;DHT22;12319;49.204;8.116;2022-08-01T02:50:47;22.90;53.60
24164;DHT22;12319;49.204;8.116;2022-08-01T02:53:14;22.90;53.60
24164;DHT22;12319;49.204;8.116;2022-08-01T02:55:42;22.90;53.60
24164;DHT22;12319;49.204;8.116;2022-08-01T02:58:12;22.80;53.60
24164;DHT22;12319;49.204;8.116;2022-08-01T03:00:40;22.80;53.80
24164;DHT22;12319;49.204;8.116;2022-08-01T03:03:07;22.80;53.80
24164;DHT22;12319;49.204;8.116;2022-08-01T03:05:34;22.80;54.10
24164;DHT22;12319;49.204;8.116;2022-08-01T03:08:01;22.70;54.10
24164;DHT22;12319;49.204;8.116;2022-08-01T03:10:28;22.70;54.10
24164;DHT22;12319;49.204;8.116;2022-08-01T03:12:55;22.70;54.20
24164;DHT22;12319;49.204;8.116;2022-08-01T03:15:23;22.60;54.10
24164;DHT22;12319;49.204;8.116;2022-08-01T03:17:51;22.60;54.30
24164;DHT22;12319;49.204;8.116;2022-08-01T03:20:18;22.60;54.50
24164;DHT22;12319;49.204;8.116;2022-08-01T03:22:47;22.50;54.50
24164;DHT22;12319;49.204;8.116;2022-08-01T03:25:15;22.50;54.70
24164;DHT22;12319;49.204;8.116;2022-08-01T03:27:43;22.50;54.80
24164;DHT22;12319;49.204;8.116;2022-08-01T03:30:09;22.50;54.80
24164;DHT22;12319;49.204;8.116;2022-08-01T03:32:36;22.50;54.70
24164;DHT22;12319;49.204;8.116;2022-08-01T03:35:01;22.40;54.90
24164;DHT22;12319;49.204;8.116;2022-08-01T03:37:33;22.40;55.60
24164;DHT22;12319;49.204;8.116;2022-08-01T03:42:34;22.40;55.60
24164;DHT22;12319;49.204;8.116;2022-08-01T03:45:04;22.30;55.30
24164;DHT22;12319;49.204;8.116;2022-08-01T03:47:34;22.30;55.60
24164;DHT22;12319;49.204;8.116;2022-08-01T03:50:02;22.30;55.50
24164;DHT22;12319;49.204;8.116;2022-08-01T03:52:30;22.30;55.60
24164;DHT22;12319;49.204;8.116;2022-08-01T03:54:59;22.40;55.60
24164;DHT22;12319;49.204;8.116;2022-08-01T03:57:28;22.30;55.80
24164;DHT22;12319;49.204;8.116;2022-08-01T03:59:55;22.30;56.00
24164;DHT22;12319;49.204;8.116;2022-08-01T04:02:21;22.30;56.00
24164;DHT22;12319;49.204;8.116;2022-08-01T04:04:48;22.30;56.00
24164;DHT22;12319;49.204;8.116;2022-08-01T04:07:32;22.30;56.10
24164;DHT22;12319;49.204;8.116;2022-08-01T04:10:00;22.30;56.80
24164;DHT22;12319;49.204;8.116;2022-08-01T04:12:26;22.30;56.20
24164;DHT22;12319;49.204;8.116;2022-08-01T04:14:52;22.30;56.50
24164;DHT22;12319;49.204;8.116;2022-08-01T04:17:18;22.30;56.40
24164;DHT22;12319;49.204;8.116;2022-08-01T04:19:44;22.30;56.40
24164;DHT22;12319;49.204;8.116;2022-08-01T04:22:11;22.30;56.60
24164;DHT22;12319;49.204;8.116;2022-08-01T04:24:38;22.30;56.60
24164;DHT22;12319;49.204;8.116;2022-08-01T04:27:13;22.30;56.70
24164;DHT22;12319;49.204;8.116;2022-08-01T04:29:41;22.30;56.80
24164;DHT22;12319;49.204;8.116;2022-08-01T04:32:08;22.40;57.00
24164;DHT22;12319;49.204;8.116;2022-08-01T04:34:37;22.50;57.00
24164;DHT22;12319;49.204;8.116;2022-08-01T04:37:07;22.50;56.90
24164;DHT22;12319;49.204;8.116;2022-08-01T04:39:35;22.50;57.00
24164;DHT22;12319;49.204;8.116;2022-08-01T04:42:04;22.60;57.00
24164;DHT22;12319;49.204;8.116;2022-08-01T04:44:31;22.60;57.10
24164;DHT22;12319;49.204;8.116;2022-08-01T04:47:01;22.60;57.00
24164;DHT22;12319;49.204;8.116;2022-08-01T04:49:32;22.60;57.00
24164;DHT22;12319;49.204;8.116;2022-08-01T04:51:58;22.70;57.00
24164;DHT22;12319;49.204;8.116;2022-08-01T04:54:26;22.70;57.00
24164;DHT22;12319;49.204;8.116;2022-08-01T04:56:53;22.80;57.20
24164;DHT22;12319;49.204;8.116;2022-08-01T04:59:24;22.90;57.30
24164;DHT22;12319;49.204;8.116;2022-08-01T05:02:15;22.90;57.10
24164;DHT22;12319;49.204;8.116;2022-08-01T05:04:42;23.10;57.30
24164;DHT22;12319;49.204;8.116;2022-08-01T05:07:08;23.10;56.90
24164;DHT22;12319;49.204;8.116;2022-08-01T05:09:35;23.60;57.30
24164;DHT22;12319;49.204;8.116;2022-08-01T05:12:05;24.50;58.00
24164;DHT22;12319;49.204;8.116;2022-08-01T05:14:31;23.50;56.80
24164;DHT22;12319;49.204;8.116;2022-08-01T05:17:02;23.60;56.70
24164;DHT22;12319;49.204;8.116;2022-08-01T05:19:33;23.70;56.80
24164;DHT22;12319;49.204;8.116;2022-08-01T05:22:02;23.80;56.90
24164;DHT22;12319;49.204;8.116;2022-08-01T05:24:30;23.80;56.60
24164;DHT22;12319;49.204;8.116;2022-08-01T05:26:56;23.80;56.60
24164;DHT22;12319;49.204;8.116;2022-08-01T05:29:23;23.80;56.70
24164;DHT22;12319;49.204;8.116;2022-08-01T05:31:49;23.80;56.60
24164;DHT22;12319;49.204;8.116;2022-08-01T05:34:15;23.80;56.80
24164;DHT22;12319;49.204;8.116;2022-08-01T05:36:41;23.70;56.60
24164;DHT22;12319;49.204;8.116;2022-08-01T05:39:06;23.70;56.80
24164;DHT22;12319;49.204;8.116;2022-08-01T05:41:32;23.70;56.80
24164;DHT22;12319;49.204;8.116;2022-08-01T05:43:57;23.70;56.80
24164;DHT22;12319;49.204;8.116;2022-08-01T05:46:23;23.70;56.80
24164;DHT22;12319;49.204;8.116;2022-08-01T05:48:49;23.70;56.80
24164;DHT22;12319;49.204;8.116;2022-08-01T05:51:14;23.80;56.90
24164;DHT22;12319;49.204;8.116;2022-08-01T05:53:40;23.80;56.90
24164;DHT22;12319;49.204;8.116;2022-08-01T05:56:05;23.90;57.00
24164;DHT22;12319;49.204;8.116;2022-08-01T05:58:31;24.00;57.00
24164;DHT22;12319;49.204;8.116;2022-08-01T06:00:57;24.10;57.00
24164;DHT22;12319;49.204;8.116;2022-08-01T06:03:23;24.10;56.90
24164;DHT22;12319;49.204;8.116;2022-08-01T06:05:50;24.40;56.90
24164;DHT22;12319;49.204;8.116;2022-08-01T06:08:16;24.60;56.70
24164;DHT22;12319;49.204;8.116;2022-08-01T06:10:41;25.00;56.60
24164;DHT22;12319;49.204;8.116;2022-08-01T06:13:07;25.30;56.40
24164;DHT22;12319;49.204;8.116;2022-08-01T06:15:33;25.60;56.20
24164;DHT22;12319;49.204;8.116;2022-08-01T06:17:59;25.90;56.00
24164;DHT22;12319;49.204;8.116;2022-08-01T06:20:24;26.10;55.60
24164;DHT22;12319;49.204;8.116;2022-08-01T06:22:50;27.10;56.00
24164;DHT22;12319;49.204;8.116;2022-08-01T06:25:17;28.20;54.30
24164;DHT22;12319;49.204;8.116;2022-08-01T06:27:43;29.10;52.80
24164;DHT22;12319;49.204;8.116;2022-08-01T06:30:09;29.70;52.00
24164;DHT22;12319;49.204;8.116;2022-08-01T06:32:35;30.00;51.20
24164;DHT22;12319;49.204;8.116;2022-08-01T06:35:00;31.90;50.90
24164;DHT22;12319;49.204;8.116;2022-08-01T06:37:32;33.40;49.10
24164;DHT22;12319;49.204;8.116;2022-08-01T06:40:05;35.20;46.50
24164;DHT22;12319;49.204;8.116;2022-08-01T06:42:31;37.10;44.00
24164;DHT22;12319;49.204;8.116;2022-08-01T06:45:07;38.90;44.00
24164;DHT22;12319;49.204;8.116;2022-08-01T06:47:33;40.30;42.30
24164;DHT22;12319;49.204;8.116;2022-08-01T06:49:59;41.70;40.90
24164;DHT22;12319;49.204;8.116;2022-08-01T06:52:25;43.00;39.00
24164;DHT22;12319;49.204;8.116;2022-08-01T06:54:51;44.00;37.70
24164;DHT22;12319;49.204;8.116;2022-08-01T06:57:17;44.80;36.50
24164;DHT22;12319;49.204;8.116;2022-08-01T06:59:42;45.50;35.60
24164;DHT22;12319;49.204;8.116;2022-08-01T07:02:08;46.00;34.50
24164;DHT22;12319;49.204;8.116;2022-08-01T07:04:34;46.50;34.00
24164;DHT22;12319;49.204;8.116;2022-08-01T07:07:00;46.90;33.60
24164;DHT22;12319;49.204;8.116;2022-08-01T07:09:26;47.30;33.00
24164;DHT22;12319;49.204;8.116;2022-08-01T07:11:52;47.70;32.10
24164;DHT22;12319;49.204;8.116;2022-08-01T07:14:18;47.90;31.50
24164;DHT22;12319;49.204;8.116;2022-08-01T07:16:44;48.30;30.90
24164;DHT22;12319;49.204;8.116;2022-08-01T07:19:10;48.40;30.50
24164;DHT22;12319;49.204;8.116;2022-08-01T07:21:35;48.70;30.30
24164;DHT22;12319;49.204;8.116;2022-08-01T07:24:01;49.00;30.00
24164;DHT22;12319;49.204;8.116;2022-08-01T07:26:27;49.40;29.70
24164;DHT22;12319;49.204;8.116;2022-08-01T07:28:53;49.80;28.70
24164;DHT22;12319;49.204;8.116;2022-08-01T07:31:18;50.00;28.40
24164;DHT22;12319;49.204;8.116;2022-08-01T07:33:44;50.00;28.30
24164;DHT22;12319;49.204;8.116;2022-08-01T07:36:11;50.00;28.00
24164;DHT22;12319;49.204;8.116;2022-08-01T07:38:36;50.10;27.80
24164;DHT22;12319;49.204;8.116;2022-08-01T07:41:02;50.20;27.60
24164;DHT22;12319;49.204;8.116;2022-08-01T07:43:28;50.40;27.30
24164;DHT22;12319;49.204;8.116;2022-08-01T07:45:53;50.60;27.20
24164;DHT22;12319;49.204;8.116;2022-08-01T07:48:19;50.70;27.00
24164;DHT22;12319;49.204;8.116;2022-08-01T07:50:49;51.00;26.90
24164;DHT22;12319;49.204;8.116;2022-08-01T07:53:15;51.10;26.60
24164;DHT22;12319;49.204;8.116;2022-08-01T07:55:40;51.30;26.00
24164;DHT22;12319;49.204;8.116;2022-08-01T07:58:06;51.40;26.20
24164;DHT22;12319;49.204;8.116;2022-08-01T08:00:31;51.50;26.10
24164;DHT22;12319;49.204;8.116;2022-08-01T08:02:57;50.90;25.40
24164;DHT22;12319;49.204;8.116;2022-08-01T08:05:27;49.20;25.50
24164;DHT22;12319;49.204;8.116;2022-08-01T08:07:53;48.40;26.10
24164;DHT22;12319;49.204;8.116;2022-08-01T08:10:18;47.70;26.30
24164;DHT22;12319;49.204;8.116;2022-08-01T08:12:44;47.50;26.20
24164;DHT22;12319;49.204;8.116;2022-08-01T08:15:12;47.50;26.20
24164;DHT22;12319;49.204;8.116;2022-08-01T08:17:38;46.10;25.90
24164;DHT22;12319;49.204;8.116;2022-08-01T08:20:05;45.10;26.40
24164;DHT22;12319;49.204;8.116;2022-08-01T08:22:31;45.10;26.90
24164;DHT22;12319;49.204;8.116;2022-08-01T08:24:57;45.50;26.90
24164;DHT22;12319;49.204;8.116;2022-08-01T08:27:22;44.70;26.80
24164;DHT22;12319;49.204;8.116;2022-08-01T08:29:48;44.50;26.90
24164;DHT22;12319;49.204;8.116;2022-08-01T08:32:13;44.60;26.90
24164;DHT22;12319;49.204;8.116;2022-08-01T08:34:39;45.10;26.90
24164;DHT22;12319;49.204;8.116;2022-08-01T08:37:05;45.60;26.60
24164;DHT22;12319;49.204;8.116;2022-08-01T08:39:30;45.90;26.60
24164;DHT22;12319;49.204;8.116;2022-08-01T08:41:59;45.70;26.30
24164;DHT22;12319;49.204;8.116;2022-08-01T08:44:24;45.40;26.30
24164;DHT22;12319;49.204;8.116;2022-08-01T08:46:51;44.30;26.80
24164;DHT22;12319;49.204;8.116;2022-08-01T08:49:19;43.30;26.60
24164;DHT22;12319;49.204;8.116;2022-08-01T08:51:48;42.20;27.10
24164;DHT22;12319;49.204;8.116;2022-08-01T08:54:14;41.20;27.60
24164;DHT22;12319;49.204;8.116;2022-08-01T08:56:41;40.40;27.90
24164;DHT22;12319;49.204;8.116;2022-08-01T08:59:07;39.60;28.40
24164;DHT22;12319;49.204;8.116;2022-08-01T09:01:32;38.90;29.00
24164;DHT22;12319;49.204;8.116;2022-08-01T09:03:59;38.30;29.40
24164;DHT22;12319;49.204;8.116;2022-08-01T09:06:24;37.60;29.80
24164;DHT22;12319;49.204;8.116;2022-08-01T09:08:50;37.00;30.20
24164;DHT22;12319;49.204;8.116;2022-08-01T09:11:16;36.60;30.80
24164;DHT22;12319;49.204;8.116;2022-08-01T09:13:41;36.20;31.30
24164;DHT22;12319;49.204;8.116;2022-08-01T09:16:25;35.70;31.50
24164;DHT22;12319;49.204;8.116;2022-08-01T09:18:51;35.30;32.10
24164;DHT22;12319;49.204;8.116;2022-08-01T09:21:21;34.90;32.40
24164;DHT22;12319;49.204;8.116;2022-08-01T09:23:52;34.30;33.00
24164;DHT22;12319;49.204;8.116;2022-08-01T09:26:30;34.10;33.40
24164;DHT22;12319;49.204;8.116;2022-08-01T09:28:56;33.70;34.20
24164;DHT22;12319;49.204;8.116;2022-08-01T09:31:21;33.40;34.00
24164;DHT22;12319;49.204;8.116;2022-08-01T09:36:22;32.90;34.90
24164;DHT22;12319;49.204;8.116;2022-08-01T09:38:48;32.80;35.20
24164;DHT22;12319;49.204;8.116;2022-08-01T09:41:14;32.70;35.60
24164;DHT22;12319;49.204;8.116;2022-08-01T09:43:40;32.60;35.80
24164;DHT22;12319;49.204;8.116;2022-08-01T09:46:11;32.50;36.10
24164;DHT22;12319;49.204;8.116;2022-08-01T09:48:37;32.40;36.60
24164;DHT22;12319;49.204;8.116;2022-08-01T09:51:05;32.30;36.50
24164;DHT22;12319;49.204;8.116;2022-08-01T09:53:48;32.30;36.80
24164;DHT22;12319;49.204;8.116;2022-08-01T09:56:14;32.30;37.30
24164;DHT22;12319;49.204;8.116;2022-08-01T10:01:21;32.10;37.80
24164;DHT22;12319;49.204;8.116;2022-08-01T10:03:47;31.90;37.00
24164;DHT22;12319;49.204;8.116;2022-08-01T10:06:28;31.90;37.50
24164;DHT22;12319;49.204;8.116;2022-08-01T10:08:54;31.70;37.80
24164;DHT22;12319;49.204;8.116;2022-08-01T10:11:19;31.80;37.80
24164;DHT22;12319;49.204;8.116;2022-08-01T10:13:47;31.90;37.90
24164;DHT22;12319;49.204;8.116;2022-08-01T10:16:13;31.90;38.00
24164;DHT22;12319;49.204;8.116;2022-08-01T10:18:41;31.80;38.10
24164;DHT22;12319;49.204;8.116;2022-08-01T10:21:07;31.70;38.10
24164;DHT22;12319;49.204;8.116;2022-08-01T10:23:34;31.60;38.30
24164;DHT22;12319;49.204;8.116;2022-08-01T10:26:01;31.50;38.40
24164;DHT22;12319;49.204;8.116;2022-08-01T10:28:30;31.50;38.50
24164;DHT22;12319;49.204;8.116;2022-08-01T10:30:57;31.50;38.50
24164;DHT22;12319;49.204;8.116;2022-08-01T10:33:24;31.70;38.50
24164;DHT22;12319;49.204;8.116;2022-08-01T10:35:50;31.70;38.60
24164;DHT22;12319;49.204;8.116;2022-08-01T10:38:16;31.70;38.70
24164;DHT22;12319;49.204;8.116;2022-08-01T10:40:43;31.80;38.40
24164;DHT22;12319;49.204;8.116;2022-08-01T10:43:12;31.80;38.30
24164;DHT22;12319;49.204;8.116;2022-08-01T10:45:39;31.80;38.30
24164;DHT22;12319;49.204;8.116;2022-08-01T10:48:34;31.90;38.20
24164;DHT22;12319;49.204;8.116;2022-08-01T10:51:04;31.90;38.50
24164;DHT22;12319;49.204;8.116;2022-08-01T10:53:31;32.10;38.10
24164;DHT22;12319;49.204;8.116;2022-08-01T10:56:01;32.20;38.00
24164;DHT22;12319;49.204;8.116;2022-08-01T10:58:32;32.20;38.00
24164;DHT22;12319;49.204;8.116;2022-08-01T11:06:46;32.80;37.70
24164;DHT22;12319;49.204;8.116;2022-08-01T11:14:22;32.80;37.30
24164;DHT22;12319;49.204;8.116;2022-08-01T11:16:47;32.70;37.30
24164;DHT22;12319;49.204;8.116;2022-08-01T11:19:13;32.70;37.40
24164;DHT22;12319;49.204;8.116;2022-08-01T11:35:13;32.50;37.20
24164;DHT22;12319;49.204;8.116;2022-08-01T11:37:39;32.60;37.10
24164;DHT22;12319;49.204;8.116;2022-08-01T11:40:17;32.70;37.10
24164;DHT22;12319;49.204;8.116;2022-08-01T11:42:43;32.80;37.00
24164;DHT22;12319;49.204;8.116;2022-08-01T11:45:09;32.80;36.70
24164;DHT22;12319;49.204;8.116;2022-08-01T11:47:45;32.90;36.90
24164;DHT22;12319;49.204;8.116;2022-08-01T11:50:29;33.00;37.50
24164;DHT22;12319;49.204;8.116;2022-08-01T11:52:59;33.10;36.40
24164;DHT22;12319;49.204;8.116;2022-08-01T11:55:26;33.40;36.40
24164;DHT22;12319;49.204;8.116;2022-08-01T11:58:07;33.50;36.50
24164;DHT22;12319;49.204;8.116;2022-08-01T12:00:33;33.80;36.30
24164;DHT22;12319;49.204;8.116;2022-08-01T12:03:01;33.90;36.00
24164;DHT22;12319;49.204;8.116;2022-08-01T12:05:28;34.10;36.00
24164;DHT22;12319;49.204;8.116;2022-08-01T12:07:55;34.10;35.60
24164;DHT22;12319;49.204;8.116;2022-08-01T12:10:24;34.20;35.40
24164;DHT22;12319;49.204;8.116;2022-08-01T12:12:51;34.20;35.30
24164;DHT22;12319;49.204;8.116;2022-08-01T12:15:19;34.00;35.10
24164;DHT22;12319;49.204;8.116;2022-08-01T12:17:49;34.00;35.20
24164;DHT22;12319;49.204;8.116;2022-08-01T12:20:19;34.00;35.00
24164;DHT22;12319;49.204;8.116;2022-08-01T12:22:45;34.00;35.10
24164;DHT22;12319;49.204;8.116;2022-08-01T12:25:15;34.10;35.10
24164;DHT22;12319;49.204;8.116;2022-08-01T12:27:43;34.20;34.90
24164;DHT22;12319;49.204;8.116;2022-08-01T12:30:14;34.10;34.90
24164;DHT22;12319;49.204;8.116;2022-08-01T12:32:42;34.00;34.90
24164;DHT22;12319;49.204;8.116;2022-08-01T12:35:12;33.90;35.10
24164;DHT22;12319;49.204;8.116;2022-08-01T12:37:45;34.10;35.50
24164;DHT22;12319;49.204;8.116;2022-08-01T12:40:22;34.30;35.10
24164;DHT22;12319;49.204;8.116;2022-08-01T12:42:50;34.50;35.10
24164;DHT22;12319;49.204;8.116;2022-08-01T12:45:22;34.70;34.90
24164;DHT22;12319;49.204;8.116;2022-08-01T12:47:50;35.00;34.90
24164;DHT22;12319;49.204;8.116;2022-08-01T12:50:24;35.20;34.60
24164;DHT22;12319;49.204;8.116;2022-08-01T12:52:51;35.40;34.00
24164;DHT22;12319;49.204;8.116;2022-08-01T12:55:19;35.40;34.30
24164;DHT22;12319;49.204;8.116;2022-08-01T12:57:50;35.50;34.10
24164;DHT22;12319;49.204;8.116;2022-08-01T13:00:25;35.40;34.10
24164;DHT22;12319;49.204;8.116;2022-08-01T13:03:02;35.40;34.00
24164;DHT22;12319;49.204;8.116;2022-08-01T13:05:28;35.40;33.80
24164;DHT22;12319;49.204;8.116;2022-08-01T13:07:53;35.30;34.00
24164;DHT22;12319;49.204;8.116;2022-08-01T13:10:28;35.20;34.30
24164;DHT22;12319;49.204;8.116;2022-08-01T13:12:58;34.90;34.20
24164;DHT22;12319;49.204;8.116;2022-08-01T13:17:52;35.10;34.50
24164;DHT22;12319;49.204;8.116;2022-08-01T13:20:26;35.00;34.50
24164;DHT22;12319;49.204;8.116;2022-08-01T13:22:52;35.00;34.70
24164;DHT22;12319;49.204;8.116;2022-08-01T13:25:18;34.80;34.70
24164;DHT22;12319;49.204;8.116;2022-08-01T13:27:44;34.80;34.80
24164;DHT22;12319;49.204;8.116;2022-08-01T13:32:37;34.40;34.80
24164;DHT22;12319;49.204;8.116;2022-08-01T13:35:07;34.30;35.10
24164;DHT22;12319;49.204;8.116;2022-08-01T13:37:33;34.40;35.20
24164;DHT22;12319;49.204;8.116;2022-08-01T13:39:59;34.60;35.10
24164;DHT22;12319;49.204;8.116;2022-08-01T13:42:24;34.70;35.00
24164;DHT22;12319;49.204;8.116;2022-08-01T13:44:50;34.70;35.10
24164;DHT22;12319;49.204;8.116;2022-08-01T13:47:16;34.60;35.10
24164;DHT22;12319;49.204;8.116;2022-08-01T13:49:41;34.50;35.20
24164;DHT22;12319;49.204;8.116;2022-08-01T13:52:07;34.60;35.30
24164;DHT22;12319;49.204;8.116;2022-08-01T13:54:33;34.60;35.30
24164;DHT22;12319;49.204;8.116;2022-08-01T13:56:58;34.40;35.20
24164;DHT22;12319;49.204;8.116;2022-08-01T13:59:24;34.10;35.30
24164;DHT22;12319;49.204;8.116;2022-08-01T14:01:50;34.00;35.50
24164;DHT22;12319;49.204;8.116;2022-08-01T14:04:16;33.90;35.80
24164;DHT22;12319;49.204;8.116;2022-08-01T14:06:41;33.70;35.90
24164;DHT22;12319;49.204;8.116;2022-08-01T14:09:07;33.60;35.90
24164;DHT22;12319;49.204;8.116;2022-08-01T14:11:33;33.70;36.00
24164;DHT22;12319;49.204;8.116;2022-08-01T14:13:59;33.60;36.00
24164;DHT22;12319;49.204;8.116;2022-08-01T14:16:24;33.60;36.20
24164;DHT22;12319;49.204;8.116;2022-08-01T14:18:50;33.70;36.30
24164;DHT22;12319;49.204;8.116;2022-08-01T14:21:16;33.50;36.10
24164;DHT22;12319;49.204;8.116;2022-08-01T14:23:42;33.40;36.30
24164;DHT22;12319;49.204;8.116;2022-08-01T14:26:11;33.20;36.40
24164;DHT22;12319;49.204;8.116;2022-08-01T14:28:37;33.10;36.50
24164;DHT22;12319;49.204;8.116;2022-08-01T14:31:03;33.10;37.40
24164;DHT22;12319;49.204;8.116;2022-08-01T14:33:32;33.00;36.80
24164;DHT22;12319;49.204;8.116;2022-08-01T14:35:57;33.00;36.90
24164;DHT22;12319;49.204;8.116;2022-08-01T14:38:23;33.10;36.90
24164;DHT22;12319;49.204;8.116;2022-08-01T14:40:49;33.30;36.80
24164;DHT22;12319;49.204;8.116;2022-08-01T14:43:17;33.50;36.70
24164;DHT22;12319;49.204;8.116;2022-08-01T14:45:43;33.70;36.60
24164;DHT22;12319;49.204;8.116;2022-08-01T14:48:09;34.10;36.60
24164;DHT22;12319;49.204;8.116;2022-08-01T14:50:35;34.40;36.30
24164;DHT22;12319;49.204;8.116;2022-08-01T14:53:01;34.60;36.20
24164;DHT22;12319;49.204;8.116;2022-08-01T14:55:27;34.60;36.10
24164;DHT22;12319;49.204;8.116;2022-08-01T14:57:52;34.60;35.90
24164;DHT22;12319;49.204;8.116;2022-08-01T15:00:18;34.60;35.90
24164;DHT22;12319;49.204;8.116;2022-08-01T15:02:44;34.50;35.80
24164;DHT22;12319;49.204;8.116;2022-08-01T15:05:09;34.30;36.00
24164;DHT22;12319;49.204;8.116;2022-08-01T15:07:36;33.90;35.90
24164;DHT22;12319;49.204;8.116;2022-08-01T15:10:03;33.70;36.20
24164;DHT22;12319;49.204;8.116;2022-08-01T15:12:28;33.30;36.40
24164;DHT22;12319;49.204;8.116;2022-08-01T15:14:54;33.00;36.60
24164;DHT22;12319;49.204;8.116;2022-08-01T15:17:28;32.70;36.90
24164;DHT22;12319;49.204;8.116;2022-08-01T15:20:00;32.50;37.40
24164;DHT22;12319;49.204;8.116;2022-08-01T15:22:26;32.30;37.30
24164;DHT22;12319;49.204;8.116;2022-08-01T15:24:53;32.20;37.30
24164;DHT22;12319;49.204;8.116;2022-08-01T15:27:19;32.10;37.70
24164;DHT22;12319;49.204;8.116;2022-08-01T15:29:46;31.90;37.80
24164;DHT22;12319;49.204;8.116;2022-08-01T15:32:11;31.80;38.00
24164;DHT22;12319;49.204;8.116;2022-08-01T15:34:38;31.70;38.70
24164;DHT22;12319;49.204;8.116;2022-08-01T15:37:04;31.60;38.20
24164;DHT22;12319;49.204;8.116;2022-08-01T15:39:30;31.50;38.50
24164;DHT22;12319;49.204;8.116;2022-08-01T15:41:59;31.50;38.60
24164;DHT22;12319;49.204;8.116;2022-08-01T15:44:25;31.50;39.20
24164;DHT22;12319;49.204;8.116;2022-08-01T15:46:50;31.40;38.80
24164;DHT22;12319;49.204;8.116;2022-08-01T15:49:16;31.40;39.00
24164;DHT22;12319;49.204;8.116;2022-08-01T15:51:42;31.70;39.40
24164;DHT22;12319;49.204;8.116;2022-08-01T15:54:09;31.20;39.10
24164;DHT22;12319;49.204;8.116;2022-08-01T15:56:35;31.00;39.20
24164;DHT22;12319;49.204;8.116;2022-08-01T15:59:01;30.90;39.40
24164;DHT22;12319;49.204;8.116;2022-08-01T16:01:27;31.00;39.50
24164;DHT22;12319;49.204;8.116;2022-08-01T16:03:56;30.90;39.50
24164;DHT22;12319;49.204;8.116;2022-08-01T16:06:23;30.90;39.90
24164;DHT22;12319;49.204;8.116;2022-08-01T16:08:49;30.90;39.80
24164;DHT22;12319;49.204;8.116;2022-08-01T16:11:15;30.80;39.60
24164;DHT22;12319;49.204;8.116;2022-08-01T16:13:40;30.80;39.80
24164;DHT22;12319;49.204;8.116;2022-08-01T16:16:07;30.70;39.90
24164;DHT22;12319;49.204;8.116;2022-08-01T16:18:33;30.80;40.10